createdAt,value
2022-07-28T00:00:08.711Z,10.54
2022-07-28T00:01:08.635Z,10.60
2022-07-28T00:02:08.716Z,10.67
2022-07-28T00:03:08.671Z,10.60
2022-07-28T00:04:08.614Z,10.74
2022-07-28T00:05:08.609Z,10.59
2022-07-28T00:06:08.598Z,10.57
2022-07-28T00:07:08.619Z,10.53
2022-07-28T00:08:08.580Z,10.49
2022-07-28T00:09:08.585Z,10.59
2022-07-28T00:10:08.568Z,10.49
2022-07-28T00:11:08.551Z,10.60
2022-07-28T00:12:08.579Z,10.54
2022-07-28T00:13:08.542Z,10.56
2022-07-28T00:14:08.540Z,10.61
2022-07-28T00:15:08.526Z,10.64
2022-07-28T00:16:08.538Z,10.68
2022-07-28T00:17:08.534Z,10.61
2022-07-28T00:18:08.501Z,10.49
2022-07-28T00:19:08.499Z,10.42
2022-07-28T00:20:08.489Z,10.38
2022-07-28T00:21:08.475Z,10.44
2022-07-28T00:22:08.502Z,10.34
2022-07-28T00:23:08.464Z,10.37
2022-07-28T00:24:08.456Z,10.30
2022-07-28T00:25:08.445Z,10.31
2022-07-28T00:26:08.447Z,10.23
2022-07-28T00:27:08.459Z,10.16
2022-07-28T00:28:08.427Z,10.15
2022-07-28T00:29:08.424Z,10.10
2022-07-28T00:30:08.414Z,10.10
2022-07-28T00:31:09.857Z,10.12
2022-07-28T00:32:08.494Z,10.16
2022-07-28T00:33:08.392Z,10.09
2022-07-28T00:34:08.378Z,10.20
2022-07-28T00:35:08.839Z,10.13
2022-07-28T00:36:10.302Z,10.19
2022-07-28T00:37:08.384Z,10.15
2022-07-28T00:38:09.348Z,10.19
2022-07-28T00:39:08.343Z,10.17
2022-07-28T00:40:08.337Z,10.10
2022-07-28T00:41:08.326Z,10.09
2022-07-28T00:42:08.346Z,10.02
2022-07-28T00:43:08.312Z,9.92
2022-07-28T00:44:08.305Z,9.87
2022-07-28T00:45:08.294Z,9.86
2022-07-28T00:46:08.415Z,9.69
2022-07-28T00:47:08.284Z,9.65
2022-07-28T00:48:08.309Z,9.64
2022-07-28T00:49:08.331Z,9.73
2022-07-28T00:50:08.257Z,9.74
2022-07-28T00:51:08.248Z,9.74
2022-07-28T00:52:08.241Z,9.69
2022-07-28T00:53:08.785Z,9.72
2022-07-28T00:54:08.230Z,9.72
2022-07-28T00:55:08.222Z,9.83
2022-07-28T00:56:08.211Z,9.80
2022-07-28T00:57:08.203Z,9.72
2022-07-28T00:58:08.218Z,9.80
2022-07-28T00:59:08.186Z,9.73
2022-07-28T01:00:08.182Z,9.79
2022-07-28T01:01:08.176Z,9.82
2022-07-28T01:02:08.309Z,9.80
2022-07-28T01:03:08.215Z,9.87
2022-07-28T01:04:08.154Z,9.76
2022-07-28T01:05:08.146Z,9.76
2022-07-28T01:06:08.133Z,9.64
2022-07-28T01:07:08.130Z,9.72
2022-07-28T01:08:08.145Z,9.65
2022-07-28T01:09:08.104Z,9.56
2022-07-28T01:10:08.102Z,9.43
2022-07-28T01:11:08.101Z,9.48
2022-07-28T01:12:08.089Z,9.61
2022-07-28T01:13:08.102Z,9.50
2022-07-28T01:14:08.077Z,9.47
2022-07-28T01:15:08.068Z,9.54
2022-07-28T01:16:08.073Z,9.51
2022-07-28T01:17:08.050Z,9.51
2022-07-28T01:18:39.978Z,9.48
2022-07-28T01:19:08.035Z,9.47
2022-07-28T01:20:08.038Z,9.50
2022-07-28T01:21:08.036Z,9.51
2022-07-28T01:22:08.059Z,9.50
2022-07-28T01:23:08.033Z,9.55
2022-07-28T01:24:07.998Z,9.59
2022-07-28T01:25:07.991Z,9.56
2022-07-28T01:26:07.985Z,9.65
2022-07-28T01:27:07.986Z,9.61
2022-07-28T01:28:07.996Z,9.43
2022-07-28T01:29:07.963Z,9.40
2022-07-28T01:30:07.959Z,9.46
2022-07-28T01:31:08.001Z,9.40
2022-07-28T01:32:07.931Z,9.51
2022-07-28T01:33:07.955Z,9.48
2022-07-28T01:34:07.924Z,9.40
2022-07-28T01:35:07.921Z,9.48
2022-07-28T01:36:07.908Z,9.50
2022-07-28T01:37:07.898Z,9.48
2022-07-28T01:38:07.918Z,9.50
2022-07-28T01:39:07.883Z,9.48
2022-07-28T01:40:07.876Z,9.47
2022-07-28T01:41:07.868Z,9.61
2022-07-28T01:42:07.860Z,9.64
2022-07-28T01:43:08.473Z,9.65
2022-07-28T01:44:07.843Z,9.68
2022-07-28T01:45:07.848Z,9.65
2022-07-28T01:46:07.850Z,9.66
2022-07-28T01:47:07.824Z,9.56
2022-07-28T01:48:07.844Z,9.40
2022-07-28T01:49:07.875Z,9.54
2022-07-28T01:50:07.803Z,9.50
2022-07-28T01:51:07.790Z,9.41
2022-07-28T01:52:07.780Z,9.43
2022-07-28T01:53:07.805Z,9.41
2022-07-28T01:54:07.765Z,9.26
2022-07-28T01:55:07.784Z,9.22
2022-07-28T01:56:07.752Z,9.34
2022-07-28T01:57:07.749Z,9.28
2022-07-28T01:58:07.770Z,9.36
2022-07-28T01:59:07.757Z,9.36
2022-07-28T02:00:07.726Z,9.43
2022-07-28T02:01:07.803Z,9.41
2022-07-28T02:02:07.816Z,9.29
2022-07-28T02:03:07.747Z,9.19
2022-07-28T02:04:07.691Z,9.18
2022-07-28T02:05:07.746Z,9.11
2022-07-28T02:06:07.684Z,9.14
2022-07-28T02:07:07.679Z,9.16
2022-07-28T02:08:07.697Z,9.19
2022-07-28T02:09:07.663Z,9.10
2022-07-28T02:10:07.660Z,9.19
2022-07-28T02:11:09.938Z,9.22
2022-07-28T02:12:07.639Z,9.29
2022-07-28T02:13:07.640Z,9.29
2022-07-28T02:14:07.648Z,9.25
2022-07-28T02:15:07.625Z,9.28
2022-07-28T02:16:07.717Z,9.28
2022-07-28T02:17:07.597Z,9.31
2022-07-28T02:18:07.587Z,9.31
2022-07-28T02:19:07.609Z,9.31
2022-07-28T02:20:07.577Z,9.21
2022-07-28T02:21:07.574Z,9.16
2022-07-28T02:22:07.572Z,9.22
2022-07-28T02:23:07.556Z,9.19
2022-07-28T02:24:07.582Z,9.14
2022-07-28T02:25:07.545Z,9.25
2022-07-28T02:26:07.537Z,9.28
2022-07-28T02:27:07.521Z,9.34
2022-07-28T02:28:07.518Z,9.31
2022-07-28T02:29:07.534Z,9.25
2022-07-28T02:30:07.504Z,9.29
2022-07-28T02:31:07.567Z,9.22
2022-07-28T02:32:27.248Z,9.26
2022-07-28T02:33:08.486Z,9.29
2022-07-28T02:34:07.728Z,9.29
2022-07-28T02:35:08.796Z,9.22
2022-07-28T02:36:07.458Z,9.28
2022-07-28T02:37:07.448Z,9.28
2022-07-28T02:38:07.450Z,9.26
2022-07-28T02:39:07.472Z,9.28
2022-07-28T02:40:07.443Z,9.22
2022-07-28T02:41:07.419Z,9.14
2022-07-28T02:42:07.412Z,9.21
2022-07-28T02:43:07.424Z,9.08
2022-07-28T02:44:07.419Z,9.19
2022-07-28T02:45:07.388Z,9.18
2022-07-28T02:46:07.420Z,9.08
2022-07-28T02:47:07.372Z,9.11
2022-07-28T02:48:07.363Z,9.21
2022-07-28T02:49:07.489Z,9.13
2022-07-28T02:50:07.351Z,9.10
2022-07-28T02:51:07.335Z,9.10
2022-07-28T02:52:07.332Z,9.00
2022-07-28T02:53:15.005Z,8.95
2022-07-28T02:54:08.346Z,9.04
2022-07-28T02:55:07.313Z,9.02
2022-07-28T02:56:07.295Z,9.06
2022-07-28T02:57:07.285Z,9.04
2022-07-28T02:58:07.287Z,9.04
2022-07-28T02:59:07.300Z,9.02
2022-07-28T03:00:07.274Z,9.04
2022-07-28T03:01:07.343Z,9.08
2022-07-28T03:02:07.259Z,9.03
2022-07-28T03:03:07.241Z,9.06
2022-07-28T03:04:07.303Z,9.06
2022-07-28T03:05:08.682Z,9.00
2022-07-28T03:06:07.215Z,9.00
2022-07-28T03:07:07.217Z,9.00
2022-07-28T03:08:07.213Z,9.00
2022-07-28T03:09:07.224Z,8.91
2022-07-28T03:10:07.193Z,8.92
2022-07-28T03:11:07.183Z,8.91
2022-07-28T03:12:07.178Z,8.76
2022-07-28T03:13:07.256Z,8.84
2022-07-28T03:14:07.190Z,8.78
2022-07-28T03:15:07.154Z,8.76
2022-07-28T03:16:07.147Z,8.74
2022-07-28T03:17:07.213Z,8.67
2022-07-28T03:18:07.135Z,8.71
2022-07-28T03:19:07.159Z,8.64
2022-07-28T03:20:07.123Z,8.69
2022-07-28T03:21:07.107Z,8.78
2022-07-28T03:22:10.449Z,8.66
2022-07-28T03:23:07.093Z,8.76
2022-07-28T03:24:07.084Z,8.85
2022-07-28T03:25:07.095Z,8.85
2022-07-28T03:26:07.069Z,8.87
2022-07-28T03:27:07.063Z,8.87
2022-07-28T03:28:07.055Z,8.89
2022-07-28T03:29:07.048Z,8.73
2022-07-28T03:30:07.072Z,8.78
2022-07-28T03:31:07.092Z,8.87
2022-07-28T03:32:07.026Z,8.79
2022-07-28T03:33:07.022Z,8.85
2022-07-28T03:34:07.010Z,8.89
2022-07-28T03:35:07.034Z,8.85
2022-07-28T03:36:07.000Z,8.78
2022-07-28T03:37:06.989Z,8.79
2022-07-28T03:38:06.981Z,8.81
2022-07-28T03:39:06.967Z,8.88
2022-07-28T03:40:06.994Z,8.82
2022-07-28T03:41:06.957Z,8.79
2022-07-28T03:42:06.951Z,8.76
2022-07-28T03:43:06.946Z,8.71
2022-07-28T03:44:06.946Z,8.88
2022-07-28T03:45:06.955Z,8.76
2022-07-28T03:46:12.701Z,8.81
2022-07-28T03:47:08.910Z,8.74
2022-07-28T03:48:06.900Z,8.95
2022-07-28T03:49:06.982Z,8.92
2022-07-28T03:50:06.913Z,8.81
2022-07-28T03:51:06.883Z,8.78
2022-07-28T03:52:06.866Z,8.76
2022-07-28T03:53:06.862Z,8.79
2022-07-28T03:54:06.861Z,8.76
2022-07-28T03:55:06.871Z,8.89
2022-07-28T03:56:06.841Z,8.88
2022-07-28T03:57:06.836Z,9.03
2022-07-28T03:58:06.826Z,8.94
2022-07-28T03:59:06.822Z,8.92
2022-07-28T04:00:09.702Z,8.94
2022-07-28T04:01:08.690Z,8.79
2022-07-28T04:02:06.814Z,8.88
2022-07-28T04:03:35.061Z,8.88
2022-07-28T04:04:07.782Z,8.91
2022-07-28T04:05:06.802Z,8.87
2022-07-28T04:06:06.752Z,8.92
2022-07-28T04:07:07.758Z,8.95
2022-07-28T04:08:06.745Z,9.04
2022-07-28T04:09:06.759Z,9.10
2022-07-28T04:10:06.771Z,8.89
2022-07-28T04:11:06.732Z,8.95
2022-07-28T04:12:06.716Z,8.97
2022-07-28T04:13:06.714Z,8.95
2022-07-28T04:14:06.712Z,8.87
2022-07-28T04:15:06.720Z,8.87
2022-07-28T04:16:06.687Z,8.84
2022-07-28T04:17:06.724Z,8.88
2022-07-28T04:18:06.669Z,8.89
2022-07-28T04:19:06.666Z,8.92
2022-07-28T04:20:06.683Z,8.87
2022-07-28T04:21:06.646Z,8.95
2022-07-28T04:22:06.645Z,8.88
2022-07-28T04:23:06.641Z,8.85
2022-07-28T04:24:06.636Z,8.87
2022-07-28T04:25:06.656Z,8.91
2022-07-28T04:26:06.619Z,8.92
2022-07-28T04:27:06.607Z,8.91
2022-07-28T04:28:06.598Z,8.91
2022-07-28T04:29:06.594Z,8.89
2022-07-28T04:30:06.614Z,8.89
2022-07-28T04:31:06.627Z,9.02
2022-07-28T04:32:06.568Z,9.06
2022-07-28T04:33:06.564Z,9.02
2022-07-28T04:34:06.592Z,9.14
2022-07-28T04:35:06.576Z,9.14
2022-07-28T04:36:06.535Z,9.21
2022-07-28T04:37:06.531Z,9.18
2022-07-28T04:38:06.523Z,9.26
2022-07-28T04:39:06.512Z,9.19
2022-07-28T04:40:06.511Z,9.25
2022-07-28T04:41:06.527Z,9.11
2022-07-28T04:42:06.507Z,9.22
2022-07-28T04:43:06.486Z,9.22
2022-07-28T04:44:06.481Z,9.28
2022-07-28T04:45:06.467Z,9.26
2022-07-28T04:46:06.526Z,9.23
2022-07-28T04:47:06.574Z,9.22
2022-07-28T04:48:06.444Z,9.41
2022-07-28T04:49:06.631Z,9.58
2022-07-28T04:50:06.429Z,9.83
2022-07-28T04:51:06.444Z,9.99
2022-07-28T04:52:06.417Z,10.42
2022-07-28T04:53:06.403Z,10.92
2022-07-28T04:54:06.401Z,11.32
2022-07-28T04:55:06.391Z,11.86
2022-07-28T04:56:06.409Z,11.99
2022-07-28T04:57:10.393Z,12.25
2022-07-28T04:58:07.364Z,12.55
2022-07-28T04:59:06.362Z,12.22
2022-07-28T05:00:06.354Z,12.29
2022-07-28T05:01:06.448Z,12.75
2022-07-28T05:02:06.342Z,13.31
2022-07-28T05:03:06.329Z,13.68
2022-07-28T05:04:06.380Z,14.17
2022-07-28T05:05:06.357Z,14.50
2022-07-28T05:06:06.332Z,14.77
2022-07-28T05:07:11.949Z,15.40
2022-07-28T05:08:07.293Z,15.65
2022-07-28T05:09:06.290Z,15.42
2022-07-28T05:10:06.274Z,15.25
2022-07-28T05:11:06.308Z,14.68
2022-07-28T05:12:06.271Z,14.47
2022-07-28T05:13:06.259Z,14.50
2022-07-28T05:14:06.253Z,14.77
2022-07-28T05:15:06.239Z,15.25
2022-07-28T05:16:06.302Z,14.47
2022-07-28T05:17:06.236Z,13.90
2022-07-28T05:18:06.241Z,13.30
2022-07-28T05:19:06.214Z,12.65
2022-07-28T05:20:06.229Z,12.10
2022-07-28T05:21:06.214Z,11.87
2022-07-28T05:22:07.186Z,11.73
2022-07-28T05:23:06.177Z,11.63
2022-07-28T05:24:06.168Z,11.48
2022-07-28T05:25:06.164Z,11.40
2022-07-28T05:26:06.186Z,11.35
2022-07-28T05:27:06.145Z,11.43
2022-07-28T05:28:06.174Z,11.50
2022-07-28T05:29:06.135Z,11.62
2022-07-28T05:30:06.125Z,11.68
2022-07-28T05:31:06.146Z,11.88
2022-07-28T05:32:16.679Z,12.39
2022-07-28T05:33:08.102Z,13.52
2022-07-28T05:34:06.103Z,14.53
2022-07-28T05:35:06.091Z,15.70
2022-07-28T05:36:06.106Z,15.97
2022-07-28T05:37:06.074Z,16.64
2022-07-28T05:38:10.528Z,17.51
2022-07-28T05:39:08.074Z,17.90
2022-07-28T05:40:06.047Z,18.10
2022-07-28T05:41:06.065Z,18.15
2022-07-28T05:42:06.055Z,18.70
2022-07-28T05:43:06.032Z,19.02
2022-07-28T05:44:06.025Z,19.37
2022-07-28T05:45:16.748Z,19.39
2022-07-28T05:46:07.096Z,19.73
2022-07-28T05:47:06.044Z,20.04
2022-07-28T05:48:05.996Z,20.32
2022-07-28T05:49:06.035Z,20.11
2022-07-28T05:50:05.980Z,19.89
2022-07-28T05:51:05.994Z,18.99
2022-07-28T05:52:05.963Z,19.14
2022-07-28T05:53:05.950Z,18.52
2022-07-28T05:54:05.943Z,18.52
2022-07-28T05:55:05.935Z,18.90
2022-07-28T05:56:05.959Z,18.37
2022-07-28T05:57:05.913Z,18.84
2022-07-28T05:58:05.907Z,18.16
2022-07-28T05:59:05.901Z,18.00
2022-07-28T06:00:05.893Z,17.68
2022-07-28T06:01:05.971Z,17.90
2022-07-28T06:02:05.941Z,18.26
2022-07-28T06:03:05.873Z,17.98
2022-07-28T06:04:27.256Z,16.47
2022-07-28T06:05:07.859Z,15.76
2022-07-28T06:06:14.604Z,15.75
2022-07-28T06:07:06.839Z,15.52
2022-07-28T06:08:05.829Z,15.02
2022-07-28T06:09:05.830Z,14.77
2022-07-28T06:10:05.813Z,14.51
2022-07-28T06:11:05.845Z,14.40
2022-07-28T06:12:05.806Z,14.36
2022-07-28T06:13:05.802Z,14.58
2022-07-28T06:14:05.793Z,14.54
2022-07-28T06:15:05.777Z,14.66
2022-07-28T06:16:09.664Z,15.03
2022-07-28T06:17:07.890Z,14.99
2022-07-28T06:18:05.755Z,14.86
2022-07-28T06:19:05.749Z,14.77
2022-07-28T06:20:05.734Z,14.73
2022-07-28T06:21:05.783Z,14.69
2022-07-28T06:22:05.741Z,14.69
2022-07-28T06:23:05.742Z,14.47
2022-07-28T06:24:05.714Z,14.63
2022-07-28T06:25:05.709Z,14.68
2022-07-28T06:26:05.695Z,14.72
2022-07-28T06:27:06.664Z,14.91
2022-07-28T06:28:05.681Z,14.84
2022-07-28T06:29:05.678Z,14.82
2022-07-28T06:30:05.661Z,14.77
2022-07-28T06:31:05.708Z,14.66
2022-07-28T06:32:05.739Z,14.82
2022-07-28T06:33:05.666Z,15.21
2022-07-28T06:34:05.638Z,15.46
2022-07-28T06:35:05.633Z,15.55
2022-07-28T06:36:05.623Z,15.29
2022-07-28T06:37:05.660Z,15.28
2022-07-28T06:38:05.606Z,15.54
2022-07-28T06:39:05.608Z,15.29
2022-07-28T06:40:05.600Z,15.09
2022-07-28T06:41:05.586Z,15.09
2022-07-28T06:42:05.608Z,15.39
2022-07-28T06:43:05.572Z,15.67
2022-07-28T06:44:05.562Z,15.80
2022-07-28T06:45:05.555Z,16.00
2022-07-28T06:46:05.553Z,16.21
2022-07-28T06:47:05.646Z,15.97
2022-07-28T06:48:05.528Z,15.76
2022-07-28T06:49:05.597Z,15.42
2022-07-28T06:50:05.520Z,15.47
2022-07-28T06:51:06.533Z,15.64
2022-07-28T06:52:05.530Z,15.84
2022-07-28T06:53:05.501Z,15.79
2022-07-28T06:54:10.741Z,15.76
2022-07-28T06:55:07.481Z,15.70
2022-07-28T06:56:05.518Z,15.84
2022-07-28T06:57:05.491Z,16.26
2022-07-28T06:58:05.462Z,16.16
2022-07-28T06:59:05.448Z,16.38
2022-07-28T07:00:05.442Z,16.28
2022-07-28T07:01:05.486Z,16.51
2022-07-28T07:02:05.446Z,16.57
2022-07-28T07:03:09.602Z,16.39
2022-07-28T07:04:05.471Z,16.50
2022-07-28T07:05:05.415Z,16.54
2022-07-28T07:06:05.398Z,16.71
2022-07-28T07:07:14.737Z,16.60
2022-07-28T07:08:06.377Z,16.58
2022-07-28T07:09:05.368Z,16.79
2022-07-28T07:10:05.369Z,16.61
2022-07-28T07:11:05.365Z,16.43
2022-07-28T07:12:05.380Z,16.46
2022-07-28T07:13:05.351Z,16.51
2022-07-28T07:14:05.345Z,16.64
2022-07-28T07:15:05.332Z,16.90
2022-07-28T07:16:05.400Z,16.76
2022-07-28T07:17:05.346Z,16.93
2022-07-28T07:18:39.276Z,16.83
2022-07-28T07:19:06.866Z,16.61
2022-07-28T07:20:05.290Z,16.46
2022-07-28T07:21:05.281Z,16.75
2022-07-28T07:22:05.304Z,16.96
2022-07-28T07:23:05.272Z,16.93
2022-07-28T07:24:05.267Z,16.87
2022-07-28T07:25:05.258Z,16.86
2022-07-28T07:26:05.252Z,17.16
2022-07-28T07:27:05.269Z,17.01
2022-07-28T07:28:05.237Z,17.12
2022-07-28T07:29:05.221Z,17.34
2022-07-28T07:30:05.221Z,17.57
2022-07-28T07:31:05.258Z,17.42
2022-07-28T07:32:10.366Z,17.11
2022-07-28T07:33:08.011Z,17.23
2022-07-28T07:34:05.194Z,17.41
2022-07-28T07:35:05.183Z,17.70
2022-07-28T07:36:05.179Z,17.52
2022-07-28T07:37:05.194Z,17.33
2022-07-28T07:38:05.170Z,17.30
2022-07-28T07:39:05.158Z,17.31
2022-07-28T07:40:05.143Z,17.42
2022-07-28T07:41:05.135Z,17.64
2022-07-28T07:42:05.156Z,17.51
2022-07-28T07:43:05.126Z,17.79
2022-07-28T07:44:05.112Z,17.78
2022-07-28T07:45:05.103Z,17.70
2022-07-28T07:46:05.144Z,17.63
2022-07-28T07:47:05.160Z,17.97
2022-07-28T07:48:05.079Z,18.05
2022-07-28T07:49:05.161Z,18.04
2022-07-28T07:50:05.069Z,17.83
2022-07-28T07:51:05.055Z,17.97
2022-07-28T07:52:05.079Z,18.22
2022-07-28T07:53:05.042Z,18.44
2022-07-28T07:54:05.041Z,18.44
2022-07-28T07:55:05.034Z,18.34
2022-07-28T07:56:05.017Z,18.26
2022-07-28T07:57:05.042Z,18.45
2022-07-28T07:58:05.007Z,18.38
2022-07-28T07:59:04.999Z,18.43
2022-07-28T08:00:04.996Z,18.40
2022-07-28T08:01:04.979Z,18.26
2022-07-28T08:02:05.062Z,18.29
2022-07-28T08:03:11.015Z,18.20
2022-07-28T08:04:05.981Z,18.31
2022-07-28T08:05:05.011Z,18.45
2022-07-28T08:06:04.946Z,18.55
2022-07-28T08:07:04.932Z,19.02
2022-07-28T08:08:05.098Z,19.16
2022-07-28T08:09:04.921Z,18.75
2022-07-28T08:10:04.911Z,18.20
2022-07-28T08:11:04.901Z,18.49
2022-07-28T08:12:04.899Z,18.34
2022-07-28T08:13:04.903Z,18.81
2022-07-28T08:14:05.881Z,19.16
2022-07-28T08:15:04.876Z,19.39
2022-07-28T08:16:04.911Z,19.39
2022-07-28T08:17:04.858Z,19.09
2022-07-28T08:18:04.873Z,19.07
2022-07-28T08:19:04.841Z,19.07
2022-07-28T08:20:04.831Z,19.09
2022-07-28T08:21:04.828Z,19.09
2022-07-28T08:22:04.816Z,19.11
2022-07-28T08:23:04.833Z,19.14
2022-07-28T08:24:04.804Z,19.18
2022-07-28T08:25:04.793Z,18.96
2022-07-28T08:26:04.789Z,19.09
2022-07-28T08:27:04.785Z,19.11
2022-07-28T08:28:04.798Z,19.31
2022-07-28T08:29:04.768Z,19.54
2022-07-28T08:30:04.777Z,19.49
2022-07-28T08:31:04.786Z,19.58
2022-07-28T08:32:04.743Z,19.33
2022-07-28T08:33:04.758Z,19.59
2022-07-28T08:34:04.730Z,19.66
2022-07-28T08:35:31.502Z,19.69
2022-07-28T08:36:06.707Z,19.79
2022-07-28T08:37:04.706Z,20.09
2022-07-28T08:38:04.721Z,19.91
2022-07-28T08:39:04.684Z,19.71
2022-07-28T08:40:04.675Z,19.66
2022-07-28T08:41:04.676Z,19.51
2022-07-28T08:42:04.670Z,19.56
2022-07-28T08:43:04.687Z,19.55
2022-07-28T08:44:04.651Z,19.30
2022-07-28T08:45:04.662Z,19.63
2022-07-28T08:46:04.733Z,19.70
2022-07-28T08:47:04.697Z,19.77
2022-07-28T08:48:09.095Z,19.62
2022-07-28T08:49:06.680Z,19.85
2022-07-28T08:50:04.605Z,19.70
2022-07-28T08:51:04.609Z,19.89
2022-07-28T08:52:04.586Z,19.94
2022-07-28T08:53:04.613Z,19.79
2022-07-28T08:54:04.579Z,19.89
2022-07-28T08:55:04.570Z,20.02
2022-07-28T08:56:04.561Z,20.18
2022-07-28T08:57:04.554Z,20.31
2022-07-28T08:58:04.579Z,20.52
2022-07-28T08:59:04.541Z,20.44
2022-07-28T09:00:04.529Z,20.37
2022-07-28T09:01:04.530Z,19.99
2022-07-28T09:02:04.545Z,19.86
2022-07-28T09:03:04.644Z,19.96
2022-07-28T09:04:04.503Z,20.02
2022-07-28T09:05:04.511Z,20.21
2022-07-28T09:06:04.503Z,20.37
2022-07-28T09:07:04.472Z,20.44
2022-07-28T09:08:04.493Z,20.81
2022-07-28T09:09:04.462Z,20.69
2022-07-28T09:10:04.459Z,20.88
2022-07-28T09:11:04.446Z,20.72
2022-07-28T09:12:04.441Z,20.62
2022-07-28T09:13:04.452Z,20.75
2022-07-28T09:14:04.414Z,20.52
2022-07-28T09:15:04.411Z,20.70
2022-07-28T09:16:04.457Z,20.70
2022-07-28T09:17:05.237Z,20.82
2022-07-28T09:18:04.418Z,21.03
2022-07-28T09:19:04.387Z,21.22
2022-07-28T09:20:10.403Z,21.09
2022-07-28T09:21:06.370Z,20.67
2022-07-28T09:22:04.360Z,20.84
2022-07-28T09:23:04.382Z,20.87
2022-07-28T09:24:04.345Z,21.05
2022-07-28T09:25:04.339Z,21.36
2022-07-28T09:26:09.967Z,21.76
2022-07-28T09:27:06.322Z,21.75
2022-07-28T09:28:04.313Z,21.29
2022-07-28T09:29:04.344Z,21.89
2022-07-28T09:30:04.304Z,22.29
2022-07-28T09:31:04.322Z,22.50
2022-07-28T09:32:04.344Z,22.53
2022-07-28T09:33:04.278Z,22.35
2022-07-28T09:34:04.298Z,22.43
2022-07-28T09:35:04.266Z,22.25
2022-07-28T09:36:04.263Z,22.02
2022-07-28T09:37:04.243Z,21.80
2022-07-28T09:38:04.244Z,21.75
2022-07-28T09:39:04.273Z,21.99
2022-07-28T09:40:04.311Z,21.96
2022-07-28T09:41:04.222Z,21.73
2022-07-28T09:42:04.215Z,21.57
2022-07-28T09:43:04.208Z,21.57
2022-07-28T09:44:04.226Z,21.62
2022-07-28T09:45:21.803Z,21.76
2022-07-28T09:46:06.349Z,21.75
2022-07-28T09:47:04.344Z,21.45
2022-07-28T09:48:04.292Z,21.75
2022-07-28T09:49:04.370Z,21.67
2022-07-28T09:50:04.198Z,21.89
2022-07-28T09:51:04.143Z,21.89
2022-07-28T09:52:04.152Z,21.73
2022-07-28T09:53:04.127Z,21.62
2022-07-28T09:54:04.138Z,21.30
2022-07-28T09:55:04.109Z,21.03
2022-07-28T09:56:04.103Z,21.29
2022-07-28T09:57:04.087Z,21.24
2022-07-28T09:58:04.084Z,21.55
2022-07-28T09:59:05.099Z,21.91
2022-07-28T10:00:04.068Z,21.25
2022-07-28T10:01:04.086Z,21.37
2022-07-28T10:02:04.099Z,21.43
2022-07-28T10:03:04.083Z,21.39
2022-07-28T10:04:04.089Z,21.29
2022-07-28T10:05:04.048Z,21.33
2022-07-28T10:06:04.022Z,21.83
2022-07-28T10:07:04.022Z,22.07
2022-07-28T10:08:04.012Z,22.00
2022-07-28T10:09:04.032Z,22.06
2022-07-28T10:10:03.987Z,22.18
2022-07-28T10:11:03.990Z,22.22
2022-07-28T10:12:03.968Z,21.96
2022-07-28T10:13:04.967Z,21.55
2022-07-28T10:14:03.984Z,21.72
2022-07-28T10:15:03.949Z,21.72
2022-07-28T10:16:03.967Z,21.95
2022-07-28T10:17:06.145Z,22.43
2022-07-28T10:18:04.929Z,22.81
2022-07-28T10:19:03.952Z,23.08
2022-07-28T10:20:03.918Z,23.10
2022-07-28T10:21:03.911Z,23.00
2022-07-28T10:22:03.901Z,23.25
2022-07-28T10:23:03.892Z,22.80
2022-07-28T10:24:03.916Z,23.00
2022-07-28T10:25:03.882Z,22.54
2022-07-28T10:26:03.874Z,22.04
2022-07-28T10:27:04.860Z,22.10
2022-07-28T10:28:03.859Z,22.18
2022-07-28T10:29:03.876Z,22.13
2022-07-28T10:30:03.838Z,22.10
2022-07-28T10:31:03.874Z,21.95
2022-07-28T10:32:03.826Z,22.11
2022-07-28T10:33:03.818Z,21.89
2022-07-28T10:34:03.813Z,22.36
2022-07-28T10:35:03.840Z,22.30
2022-07-28T10:36:03.793Z,22.50
2022-07-28T10:37:03.786Z,22.26
2022-07-28T10:38:03.783Z,22.23
2022-07-28T10:39:03.782Z,22.23
2022-07-28T10:40:09.382Z,22.47
2022-07-28T10:41:05.751Z,22.87
2022-07-28T10:42:03.754Z,22.72
2022-07-28T10:43:03.735Z,22.53
2022-07-28T10:44:03.728Z,22.72
2022-07-28T10:45:03.750Z,22.35
2022-07-28T10:46:06.014Z,22.68
2022-07-28T10:47:04.748Z,23.20
2022-07-28T10:48:03.700Z,23.02
2022-07-28T10:49:03.917Z,23.00
2022-07-28T10:50:03.712Z,22.98
2022-07-28T10:51:03.678Z,23.08
2022-07-28T10:52:08.653Z,23.13
2022-07-28T10:53:04.661Z,22.73
2022-07-28T10:54:03.659Z,23.00
2022-07-28T10:55:03.678Z,22.70
2022-07-28T10:56:03.641Z,22.96
2022-07-28T10:57:04.853Z,23.34
2022-07-28T10:58:11.727Z,23.68
2022-07-28T10:59:05.038Z,23.68
2022-07-28T11:00:12.764Z,23.46
2022-07-28T11:01:06.616Z,23.74
2022-07-28T11:02:04.693Z,23.84
2022-07-28T11:03:13.333Z,23.84
2022-07-28T11:04:04.582Z,23.06
2022-07-28T11:05:03.602Z,23.54
2022-07-28T11:06:03.563Z,23.74
2022-07-28T11:07:03.558Z,23.92
2022-07-28T11:08:03.554Z,23.23
2022-07-28T11:09:03.540Z,23.23
2022-07-28T11:10:03.561Z,22.98
2022-07-28T11:11:08.744Z,23.08
2022-07-28T11:12:04.519Z,23.06
2022-07-28T11:13:04.084Z,23.08
2022-07-28T11:14:03.504Z,22.70
2022-07-28T11:15:18.360Z,22.94
2022-07-28T11:16:04.491Z,22.96
2022-07-28T11:17:03.548Z,23.23
2022-07-28T11:18:03.479Z,23.44
2022-07-28T11:19:04.780Z,23.23
2022-07-28T11:20:30.542Z,23.46
2022-07-28T11:21:05.459Z,23.66
2022-07-28T11:22:03.456Z,23.58
2022-07-28T11:23:03.446Z,23.43
2022-07-28T11:24:03.439Z,23.99
2022-07-28T11:25:18.928Z,23.59
2022-07-28T11:26:04.447Z,23.37
2022-07-28T11:27:04.208Z,23.44
2022-07-28T11:28:04.417Z,23.74
2022-07-28T11:29:03.400Z,23.73
2022-07-28T11:30:03.398Z,23.88
2022-07-28T11:31:03.522Z,23.88
2022-07-28T11:32:03.381Z,24.16
2022-07-28T11:33:03.373Z,24.39
2022-07-28T11:34:03.364Z,24.60
2022-07-28T11:35:03.356Z,24.35
2022-07-28T11:36:03.380Z,24.32
2022-07-28T11:37:03.343Z,24.60
2022-07-28T11:38:03.642Z,24.63
2022-07-28T11:39:03.326Z,24.50
2022-07-28T11:40:03.321Z,24.17
2022-07-28T11:41:03.339Z,24.13
2022-07-28T11:42:03.313Z,24.21
2022-07-28T11:43:03.313Z,24.61
2022-07-28T11:44:03.292Z,24.84
2022-07-28T11:45:03.292Z,24.58
2022-07-28T11:46:03.343Z,24.85
2022-07-28T11:47:03.267Z,25.18
2022-07-28T11:48:03.268Z,25.40
2022-07-28T11:49:03.321Z,25.55
2022-07-28T11:50:03.246Z,24.81
2022-07-28T11:51:03.267Z,24.69
2022-07-28T11:52:03.230Z,24.70
2022-07-28T11:53:03.222Z,24.88
2022-07-28T11:54:03.220Z,24.61
2022-07-28T11:55:03.214Z,24.40
2022-07-28T11:56:03.403Z,24.54
2022-07-28T11:57:03.198Z,24.78
2022-07-28T11:58:03.185Z,24.68
2022-07-28T11:59:03.196Z,24.48
2022-07-28T12:00:03.175Z,24.43
2022-07-28T12:01:03.201Z,24.66
2022-07-28T12:02:03.282Z,24.88
2022-07-28T12:03:03.178Z,24.96
2022-07-28T12:04:03.145Z,24.96
2022-07-28T12:05:03.179Z,25.10
2022-07-28T12:06:03.154Z,25.06
2022-07-28T12:07:03.124Z,24.61
2022-07-28T12:08:03.137Z,23.83
2022-07-28T12:09:03.117Z,23.80
2022-07-28T12:10:03.117Z,24.38
2022-07-28T12:11:03.125Z,24.73
2022-07-28T12:12:03.092Z,24.89
2022-07-28T12:13:03.079Z,25.23
2022-07-28T12:14:03.093Z,25.43
2022-07-28T12:15:06.823Z,25.14
2022-07-28T12:16:04.102Z,24.77
2022-07-28T12:17:03.118Z,24.45
2022-07-28T12:18:03.042Z,24.69
2022-07-28T12:19:03.033Z,24.70
2022-07-28T12:20:03.035Z,24.42
2022-07-28T12:21:05.245Z,24.03
2022-07-28T12:22:04.015Z,24.30
2022-07-28T12:23:03.011Z,24.06
2022-07-28T12:24:03.000Z,23.93
2022-07-28T12:25:02.996Z,24.02
2022-07-28T12:26:02.987Z,24.05
2022-07-28T12:27:03.001Z,23.83
2022-07-28T12:28:02.972Z,24.16
2022-07-28T12:29:02.965Z,24.18
2022-07-28T12:30:03.979Z,24.21
2022-07-28T12:31:02.954Z,24.18
2022-07-28T12:32:03.045Z,24.20
2022-07-28T12:33:02.934Z,23.78
2022-07-28T12:34:02.934Z,23.86
2022-07-28T12:35:02.918Z,23.95
2022-07-28T12:36:02.922Z,24.14
2022-07-28T12:37:02.931Z,24.24
2022-07-28T12:38:02.897Z,24.39
2022-07-28T12:39:02.883Z,24.65
2022-07-28T12:40:02.876Z,24.60
2022-07-28T12:41:02.876Z,24.08
2022-07-28T12:42:02.896Z,23.98
2022-07-28T12:43:02.853Z,23.99
2022-07-28T12:44:11.467Z,23.87
2022-07-28T12:45:03.843Z,24.11
2022-07-28T12:46:02.919Z,24.17
2022-07-28T12:47:02.855Z,24.50
2022-07-28T12:48:02.820Z,24.66
2022-07-28T12:49:02.885Z,24.76
2022-07-28T12:50:06.902Z,25.04
2022-07-28T12:51:03.803Z,25.16
2022-07-28T12:52:02.810Z,25.17
2022-07-28T12:53:02.782Z,24.68
2022-07-28T12:54:02.769Z,24.73
2022-07-28T12:55:02.754Z,25.14
2022-07-28T12:56:03.758Z,25.29
2022-07-28T12:57:02.770Z,24.95
2022-07-28T12:58:02.736Z,25.07
2022-07-28T12:59:02.736Z,25.04
2022-07-28T13:00:02.725Z,25.25